sensor_id;sensor_type;location;lat;lon;timestamp;P1;durP1;ratioP1;P2;durP2;ratioP2
75793;SDS011;64418;47.536;19.074;2023-11-22T00:01:07;28.90;;;15.20;;
75793;SDS011;64418;47.536;19.074;2023-11-22T00:03:35;29.98;;;15.13;;
75793;SDS011;64418;47.536;19.074;2023-11-22T00:06:03;30.57;;;15.23;;
75793;SDS011;64418;47.536;19.074;2023-11-22T00:08:30;30.92;;;15.88;;
75793;SDS011;64418;47.536;19.074;2023-11-22T00:10:57;33.08;;;15.52;;
75793;SDS011;64418;47.536;19.074;2023-11-22T00:13:23;27.87;;;15.50;;
75793;SDS011;64418;47.536;19.074;2023-11-22T00:15:50;37.53;;;15.98;;
75793;SDS011;64418;47.536;19.074;2023-11-22T00:18:16;31.37;;;15.77;;
75793;SDS011;64418;47.536;19.074;2023-11-22T00:20:42;32.22;;;16.17;;
75793;SDS011;64418;47.536;19.074;2023-11-22T00:23:13;30.98;;;15.50;;
75793;SDS011;64418;47.536;19.074;2023-11-22T00:25:46;29.90;;;14.95;;
75793;SDS011;64418;47.536;19.074;2023-11-22T00:28:12;30.17;;;15.45;;
75793;SDS011;64418;47.536;19.074;2023-11-22T00:30:38;29.27;;;14.87;;
75793;SDS011;64418;47.536;19.074;2023-11-22T00:33:05;29.52;;;15.70;;
75793;SDS011;64418;47.536;19.074;2023-11-22T00:35:31;29.27;;;14.60;;
75793;SDS011;64418;47.536;19.074;2023-11-22T00:37:57;29.33;;;15.23;;
75793;SDS011;64418;47.536;19.074;2023-11-22T00:40:26;28.38;;;14.50;;
75793;SDS011;64418;47.536;19.074;2023-11-22T00:42:54;27.10;;;13.60;;
75793;SDS011;64418;47.536;19.074;2023-11-22T00:45:20;30.65;;;13.98;;
75793;SDS011;64418;47.536;19.074;2023-11-22T00:47:47;28.10;;;13.88;;
75793;SDS011;64418;47.536;19.074;2023-11-22T00:50:14;26.52;;;13.27;;
75793;SDS011;64418;47.536;19.074;2023-11-22T00:52:41;30.88;;;14.10;;
75793;SDS011;64418;47.536;19.074;2023-11-22T00:55:08;24.37;;;12.47;;
75793;SDS011;64418;47.536;19.074;2023-11-22T00:57:41;30.10;;;13.18;;
75793;SDS011;64418;47.536;19.074;2023-11-22T01:00:11;24.33;;;12.57;;
75793;SDS011;64418;47.536;19.074;2023-11-22T01:02:41;27.65;;;14.07;;
75793;SDS011;64418;47.536;19.074;2023-11-22T01:05:08;28.62;;;14.73;;
75793;SDS011;64418;47.536;19.074;2023-11-22T01:07:34;29.67;;;14.60;;
75793;SDS011;64418;47.536;19.074;2023-11-22T01:10:02;29.17;;;14.55;;
75793;SDS011;64418;47.536;19.074;2023-11-22T01:12:30;28.35;;;14.90;;
75793;SDS011;64418;47.536;19.074;2023-11-22T01:14:59;26.48;;;13.50;;
75793;SDS011;64418;47.536;19.074;2023-11-22T01:17:25;27.20;;;12.88;;
75793;SDS011;64418;47.536;19.074;2023-11-22T01:19:51;25.03;;;14.23;;
75793;SDS011;64418;47.536;19.074;2023-11-22T01:22:16;27.02;;;14.05;;
75793;SDS011;64418;47.536;19.074;2023-11-22T01:24:42;25.25;;;13.43;;
75793;SDS011;64418;47.536;19.074;2023-11-22T01:27:08;27.73;;;13.17;;
75793;SDS011;64418;47.536;19.074;2023-11-22T01:29:34;27.85;;;13.75;;
75793;SDS011;64418;47.536;19.074;2023-11-22T01:32:03;28.70;;;14.95;;
75793;SDS011;64418;47.536;19.074;2023-11-22T01:34:29;28.95;;;13.77;;
75793;SDS011;64418;47.536;19.074;2023-11-22T01:36:55;30.42;;;14.02;;
75793;SDS011;64418;47.536;19.074;2023-11-22T01:39:21;23.93;;;13.33;;
75793;SDS011;64418;47.536;19.074;2023-11-22T01:41:47;27.50;;;13.93;;
75793;SDS011;64418;47.536;19.074;2023-11-22T01:44:14;21.37;;;12.63;;
75793;SDS011;64418;47.536;19.074;2023-11-22T01:46:40;23.08;;;12.25;;
75793;SDS011;64418;47.536;19.074;2023-11-22T01:49:09;21.63;;;12.17;;
75793;SDS011;64418;47.536;19.074;2023-11-22T01:51:36;24.50;;;13.20;;
75793;SDS011;64418;47.536;19.074;2023-11-22T01:54:07;24.77;;;13.15;;
75793;SDS011;64418;47.536;19.074;2023-11-22T01:56:35;17.17;;;9.15;;
75793;SDS011;64418;47.536;19.074;2023-11-22T01:59:02;20.08;;;11.30;;
75793;SDS011;64418;47.536;19.074;2023-11-22T02:01:29;21.10;;;10.67;;
75793;SDS011;64418;47.536;19.074;2023-11-22T02:03:56;19.60;;;9.82;;
75793;SDS011;64418;47.536;19.074;2023-11-22T02:06:23;19.45;;;11.10;;
75793;SDS011;64418;47.536;19.074;2023-11-22T02:08:50;18.62;;;10.95;;
75793;SDS011;64418;47.536;19.074;2023-11-22T02:11:17;18.43;;;9.47;;
75793;SDS011;64418;47.536;19.074;2023-11-22T02:13:43;18.60;;;8.52;;
75793;SDS011;64418;47.536;19.074;2023-11-22T02:16:09;18.33;;;8.35;;
75793;SDS011;64418;47.536;19.074;2023-11-22T02:18:35;12.98;;;6.10;;
75793;SDS011;64418;47.536;19.074;2023-11-22T02:21:01;19.30;;;8.63;;
75793;SDS011;64418;47.536;19.074;2023-11-22T02:23:28;15.10;;;7.43;;
75793;SDS011;64418;47.536;19.074;2023-11-22T02:25:54;10.40;;;5.75;;
75793;SDS011;64418;47.536;19.074;2023-11-22T02:28:20;13.67;;;7.07;;
75793;SDS011;64418;47.536;19.074;2023-11-22T02:30:46;14.17;;;7.33;;
75793;SDS011;64418;47.536;19.074;2023-11-22T02:33:12;14.20;;;7.22;;
75793;SDS011;64418;47.536;19.074;2023-11-22T02:35:38;14.55;;;6.62;;
75793;SDS011;64418;47.536;19.074;2023-11-22T02:38:04;14.37;;;6.90;;
75793;SDS011;64418;47.536;19.074;2023-11-22T02:40:31;13.80;;;7.15;;
75793;SDS011;64418;47.536;19.074;2023-11-22T02:42:57;13.90;;;6.62;;
75793;SDS011;64418;47.536;19.074;2023-11-22T02:45:24;12.57;;;6.87;;
75793;SDS011;64418;47.536;19.074;2023-11-22T02:47:50;11.48;;;6.47;;
75793;SDS011;64418;47.536;19.074;2023-11-22T02:50:16;14.60;;;6.47;;
75793;SDS011;64418;47.536;19.074;2023-11-22T02:52:42;16.87;;;7.12;;
75793;SDS011;64418;47.536;19.074;2023-11-22T02:55:08;15.50;;;7.00;;
75793;SDS011;64418;47.536;19.074;2023-11-22T02:57:37;18.30;;;7.70;;
75793;SDS011;64418;47.536;19.074;2023-11-22T03:00:04;20.00;;;7.57;;
75793;SDS011;64418;47.536;19.074;2023-11-22T03:02:31;15.73;;;7.30;;
75793;SDS011;64418;47.536;19.074;2023-11-22T03:04:57;17.57;;;7.50;;
75793;SDS011;64418;47.536;19.074;2023-11-22T03:07:23;14.30;;;6.85;;
75793;SDS011;64418;47.536;19.074;2023-11-22T03:09:50;16.98;;;7.65;;
75793;SDS011;64418;47.536;19.074;2023-11-22T03:12:16;16.83;;;6.28;;
75793;SDS011;64418;47.536;19.074;2023-11-22T03:14:43;25.27;;;7.17;;
75793;SDS011;64418;47.536;19.074;2023-11-22T03:17:09;20.08;;;6.95;;
75793;SDS011;64418;47.536;19.074;2023-11-22T03:19:35;24.05;;;7.35;;
75793;SDS011;64418;47.536;19.074;2023-11-22T03:22:01;16.20;;;6.30;;
75793;SDS011;64418;47.536;19.074;2023-11-22T03:24:27;18.40;;;6.50;;
75793;SDS011;64418;47.536;19.074;2023-11-22T03:26:52;21.42;;;7.10;;
75793;SDS011;64418;47.536;19.074;2023-11-22T03:29:18;15.57;;;6.50;;
75793;SDS011;64418;47.536;19.074;2023-11-22T03:31:46;15.75;;;6.80;;
75793;SDS011;64418;47.536;19.074;2023-11-22T03:34:11;18.77;;;6.00;;
75793;SDS011;64418;47.536;19.074;2023-11-22T03:36:38;16.50;;;6.30;;
75793;SDS011;64418;47.536;19.074;2023-11-22T03:39:05;21.77;;;6.80;;
75793;SDS011;64418;47.536;19.074;2023-11-22T03:41:31;23.05;;;7.43;;
75793;SDS011;64418;47.536;19.074;2023-11-22T03:43:57;17.87;;;6.75;;
75793;SDS011;64418;47.536;19.074;2023-11-22T03:46:23;18.93;;;7.23;;
75793;SDS011;64418;47.536;19.074;2023-11-22T03:48:50;18.62;;;6.78;;
75793;SDS011;64418;47.536;19.074;2023-11-22T03:51:16;19.85;;;7.72;;
75793;SDS011;64418;47.536;19.074;2023-11-22T03:53:42;24.00;;;7.13;;
75793;SDS011;64418;47.536;19.074;2023-11-22T03:56:08;21.87;;;7.60;;
75793;SDS011;64418;47.536;19.074;2023-11-22T03:58:34;26.25;;;8.32;;
75793;SDS011;64418;47.536;19.074;2023-11-22T04:01:00;17.00;;;7.47;;
75793;SDS011;64418;47.536;19.074;2023-11-22T04:03:25;23.45;;;7.70;;
75793;SDS011;64418;47.536;19.074;2023-11-22T04:05:53;17.98;;;8.20;;
75793;SDS011;64418;47.536;19.074;2023-11-22T04:08:19;18.10;;;7.20;;
75793;SDS011;64418;47.536;19.074;2023-11-22T04:10:45;18.20;;;7.22;;
75793;SDS011;64418;47.536;19.074;2023-11-22T04:13:11;19.92;;;7.55;;
75793;SDS011;64418;47.536;19.074;2023-11-22T04:15:37;16.12;;;7.37;;
75793;SDS011;64418;47.536;19.074;2023-11-22T04:18:03;19.85;;;7.47;;
75793;SDS011;64418;47.536;19.074;2023-11-22T04:20:29;14.13;;;7.00;;
75793;SDS011;64418;47.536;19.074;2023-11-22T04:22:57;16.48;;;6.97;;
75793;SDS011;64418;47.536;19.074;2023-11-22T04:25:24;14.63;;;6.57;;
75793;SDS011;64418;47.536;19.074;2023-11-22T04:27:49;12.63;;;6.82;;
75793;SDS011;64418;47.536;19.074;2023-11-22T04:30:15;15.13;;;6.93;;
75793;SDS011;64418;47.536;19.074;2023-11-22T04:32:41;15.00;;;6.93;;
75793;SDS011;64418;47.536;19.074;2023-11-22T04:35:07;12.37;;;6.43;;
75793;SDS011;64418;47.536;19.074;2023-11-22T04:37:34;13.43;;;6.17;;
75793;SDS011;64418;47.536;19.074;2023-11-22T04:40:01;12.70;;;6.20;;
75793;SDS011;64418;47.536;19.074;2023-11-22T04:42:27;12.40;;;6.10;;
75793;SDS011;64418;47.536;19.074;2023-11-22T04:44:53;14.67;;;6.97;;
75793;SDS011;64418;47.536;19.074;2023-11-22T04:47:20;14.57;;;7.05;;
75793;SDS011;64418;47.536;19.074;2023-11-22T04:49:46;13.52;;;6.95;;
75793;SDS011;64418;47.536;19.074;2023-11-22T04:52:12;13.45;;;7.55;;
75793;SDS011;64418;47.536;19.074;2023-11-22T04:54:39;13.40;;;7.20;;
75793;SDS011;64418;47.536;19.074;2023-11-22T04:57:07;13.65;;;7.30;;
75793;SDS011;64418;47.536;19.074;2023-11-22T04:59:32;14.80;;;6.78;;
75793;SDS011;64418;47.536;19.074;2023-11-22T05:01:58;13.88;;;7.28;;
75793;SDS011;64418;47.536;19.074;2023-11-22T05:04:24;13.90;;;7.57;;
75793;SDS011;64418;47.536;19.074;2023-11-22T05:06:50;13.10;;;6.82;;
75793;SDS011;64418;47.536;19.074;2023-11-22T05:09:16;16.85;;;8.05;;
75793;SDS011;64418;47.536;19.074;2023-11-22T05:11:42;16.03;;;7.30;;
75793;SDS011;64418;47.536;19.074;2023-11-22T05:14:09;17.45;;;8.02;;
75793;SDS011;64418;47.536;19.074;2023-11-22T05:16:35;16.12;;;8.60;;
75793;SDS011;64418;47.536;19.074;2023-11-22T05:19:01;17.00;;;8.60;;
75793;SDS011;64418;47.536;19.074;2023-11-22T05:21:27;19.67;;;8.20;;
75793;SDS011;64418;47.536;19.074;2023-11-22T05:23:53;16.50;;;7.60;;
75793;SDS011;64418;47.536;19.074;2023-11-22T05:26:19;15.45;;;6.80;;
75793;SDS011;64418;47.536;19.074;2023-11-22T05:28:48;12.00;;;6.47;;
75793;SDS011;64418;47.536;19.074;2023-11-22T05:31:16;9.73;;;5.13;;
75793;SDS011;64418;47.536;19.074;2023-11-22T05:33:42;15.45;;;7.85;;
75793;SDS011;64418;47.536;19.074;2023-11-22T05:36:08;13.82;;;6.47;;
75793;SDS011;64418;47.536;19.074;2023-11-22T05:38:37;12.57;;;5.28;;
75793;SDS011;64418;47.536;19.074;2023-11-22T05:41:03;11.57;;;5.10;;
75793;SDS011;64418;47.536;19.074;2023-11-22T05:43:30;12.63;;;6.60;;
75793;SDS011;64418;47.536;19.074;2023-11-22T05:45:56;9.35;;;4.75;;
75793;SDS011;64418;47.536;19.074;2023-11-22T05:48:24;10.10;;;4.90;;
75793;SDS011;64418;47.536;19.074;2023-11-22T05:50:50;7.72;;;4.30;;
75793;SDS011;64418;47.536;19.074;2023-11-22T05:53:16;10.17;;;4.97;;
75793;SDS011;64418;47.536;19.074;2023-11-22T05:55:41;11.20;;;4.28;;
75793;SDS011;64418;47.536;19.074;2023-11-22T05:58:07;11.17;;;5.23;;
75793;SDS011;64418;47.536;19.074;2023-11-22T06:00:33;9.55;;;4.70;;
75793;SDS011;64418;47.536;19.074;2023-11-22T06:02:59;10.70;;;4.77;;
75793;SDS011;64418;47.536;19.074;2023-11-22T06:05:26;8.20;;;4.32;;
75793;SDS011;64418;47.536;19.074;2023-11-22T06:07:52;12.15;;;5.25;;
75793;SDS011;64418;47.536;19.074;2023-11-22T06:10:18;8.63;;;4.78;;
75793;SDS011;64418;47.536;19.074;2023-11-22T06:12:44;10.65;;;5.22;;
75793;SDS011;64418;47.536;19.074;2023-11-22T06:15:10;8.40;;;4.50;;
75793;SDS011;64418;47.536;19.074;2023-11-22T06:17:36;9.57;;;4.30;;
75793;SDS011;64418;47.536;19.074;2023-11-22T06:20:02;9.30;;;4.07;;
75793;SDS011;64418;47.536;19.074;2023-11-22T06:22:32;10.95;;;4.22;;
75793;SDS011;64418;47.536;19.074;2023-11-22T06:24:59;8.53;;;4.43;;
75793;SDS011;64418;47.536;19.074;2023-11-22T06:27:25;8.38;;;4.57;;
75793;SDS011;64418;47.536;19.074;2023-11-22T06:29:51;7.72;;;4.82;;
75793;SDS011;64418;47.536;19.074;2023-11-22T06:32:17;8.90;;;4.20;;
75793;SDS011;64418;47.536;19.074;2023-11-22T06:34:43;9.32;;;4.50;;
75793;SDS011;64418;47.536;19.074;2023-11-22T06:37:09;10.02;;;4.70;;
75793;SDS011;64418;47.536;19.074;2023-11-22T06:39:36;9.77;;;4.55;;
75793;SDS011;64418;47.536;19.074;2023-11-22T06:42:03;9.25;;;4.25;;
75793;SDS011;64418;47.536;19.074;2023-11-22T06:44:29;7.07;;;4.27;;
75793;SDS011;64418;47.536;19.074;2023-11-22T06:46:56;7.57;;;4.47;;
75793;SDS011;64418;47.536;19.074;2023-11-22T06:49:22;12.25;;;4.80;;
75793;SDS011;64418;47.536;19.074;2023-11-22T06:51:48;7.68;;;3.95;;
75793;SDS011;64418;47.536;19.074;2023-11-22T06:54:14;7.45;;;4.18;;
75793;SDS011;64418;47.536;19.074;2023-11-22T06:56:41;8.13;;;4.47;;
75793;SDS011;64418;47.536;19.074;2023-11-22T06:59:08;7.65;;;4.57;;
75793;SDS011;64418;47.536;19.074;2023-11-22T07:01:34;8.95;;;4.82;;
75793;SDS011;64418;47.536;19.074;2023-11-22T07:04:00;10.18;;;5.37;;
75793;SDS011;64418;47.536;19.074;2023-11-22T07:06:26;8.03;;;4.30;;
75793;SDS011;64418;47.536;19.074;2023-11-22T07:08:52;6.87;;;4.28;;
75793;SDS011;64418;47.536;19.074;2023-11-22T07:11:22;7.93;;;4.40;;
75793;SDS011;64418;47.536;19.074;2023-11-22T07:13:49;9.82;;;4.20;;
75793;SDS011;64418;47.536;19.074;2023-11-22T07:16:16;8.02;;;4.07;;
75793;SDS011;64418;47.536;19.074;2023-11-22T07:18:42;7.37;;;4.27;;
75793;SDS011;64418;47.536;19.074;2023-11-22T07:21:08;9.98;;;4.47;;
75793;SDS011;64418;47.536;19.074;2023-11-22T07:23:34;9.30;;;4.75;;
75793;SDS011;64418;47.536;19.074;2023-11-22T07:26:00;10.38;;;4.47;;
75793;SDS011;64418;47.536;19.074;2023-11-22T07:28:26;10.13;;;4.53;;
75793;SDS011;64418;47.536;19.074;2023-11-22T07:30:54;7.70;;;4.40;;
75793;SDS011;64418;47.536;19.074;2023-11-22T07:33:20;7.47;;;4.28;;
75793;SDS011;64418;47.536;19.074;2023-11-22T07:35:46;7.55;;;4.15;;
75793;SDS011;64418;47.536;19.074;2023-11-22T07:38:13;6.45;;;4.30;;
75793;SDS011;64418;47.536;19.074;2023-11-22T07:40:39;6.65;;;3.92;;
75793;SDS011;64418;47.536;19.074;2023-11-22T07:43:05;7.80;;;4.90;;
75793;SDS011;64418;47.536;19.074;2023-11-22T07:45:31;7.60;;;4.47;;
75793;SDS011;64418;47.536;19.074;2023-11-22T07:47:58;7.05;;;4.35;;
75793;SDS011;64418;47.536;19.074;2023-11-22T07:50:24;7.00;;;3.97;;
75793;SDS011;64418;47.536;19.074;2023-11-22T07:52:51;8.97;;;5.90;;
75793;SDS011;64418;47.536;19.074;2023-11-22T07:55:17;9.23;;;4.60;;
75793;SDS011;64418;47.536;19.074;2023-11-22T07:57:43;10.75;;;4.90;;
75793;SDS011;64418;47.536;19.074;2023-11-22T08:00:09;8.33;;;4.10;;
75793;SDS011;64418;47.536;19.074;2023-11-22T08:02:36;10.77;;;3.90;;
75793;SDS011;64418;47.536;19.074;2023-11-22T08:05:04;9.13;;;4.32;;
75793;SDS011;64418;47.536;19.074;2023-11-22T08:07:30;4.78;;;3.17;;
75793;SDS011;64418;47.536;19.074;2023-11-22T08:09:57;6.45;;;3.90;;
75793;SDS011;64418;47.536;19.074;2023-11-22T08:12:25;7.13;;;3.17;;
75793;SDS011;64418;47.536;19.074;2023-11-22T08:14:51;5.72;;;3.45;;
75793;SDS011;64418;47.536;19.074;2023-11-22T08:17:17;6.12;;;3.60;;
75793;SDS011;64418;47.536;19.074;2023-11-22T08:19:43;6.87;;;4.30;;
75793;SDS011;64418;47.536;19.074;2023-11-22T08:22:11;5.35;;;3.58;;
75793;SDS011;64418;47.536;19.074;2023-11-22T08:24:37;9.60;;;4.77;;
75793;SDS011;64418;47.536;19.074;2023-11-22T08:27:04;9.40;;;5.00;;
75793;SDS011;64418;47.536;19.074;2023-11-22T08:29:30;7.47;;;4.10;;
75793;SDS011;64418;47.536;19.074;2023-11-22T08:31:57;12.60;;;4.50;;
75793;SDS011;64418;47.536;19.074;2023-11-22T08:34:24;8.40;;;4.97;;
75793;SDS011;64418;47.536;19.074;2023-11-22T08:36:50;8.40;;;4.37;;
75793;SDS011;64418;47.536;19.074;2023-11-22T08:39:17;8.40;;;4.47;;
75793;SDS011;64418;47.536;19.074;2023-11-22T08:41:43;7.20;;;3.78;;
75793;SDS011;64418;47.536;19.074;2023-11-22T08:44:17;5.63;;;3.67;;
75793;SDS011;64418;47.536;19.074;2023-11-22T08:46:44;8.75;;;3.97;;
75793;SDS011;64418;47.536;19.074;2023-11-22T08:49:11;7.93;;;4.03;;
75793;SDS011;64418;47.536;19.074;2023-11-22T08:51:37;10.23;;;4.50;;
75793;SDS011;64418;47.536;19.074;2023-11-22T08:54:03;6.72;;;4.00;;
75793;SDS011;64418;47.536;19.074;2023-11-22T08:56:31;4.13;;;3.20;;
75793;SDS011;64418;47.536;19.074;2023-11-22T08:58:57;6.35;;;4.45;;
75793;SDS011;64418;47.536;19.074;2023-11-22T09:01:23;7.32;;;4.25;;
75793;SDS011;64418;47.536;19.074;2023-11-22T09:03:49;6.37;;;3.70;;
75793;SDS011;64418;47.536;19.074;2023-11-22T09:06:15;6.30;;;3.97;;
75793;SDS011;64418;47.536;19.074;2023-11-22T09:08:41;6.33;;;3.90;;
75793;SDS011;64418;47.536;19.074;2023-11-22T09:11:07;6.15;;;4.40;;
75793;SDS011;64418;47.536;19.074;2023-11-22T09:13:35;6.78;;;3.70;;
75793;SDS011;64418;47.536;19.074;2023-11-22T09:16:01;7.95;;;3.80;;
75793;SDS011;64418;47.536;19.074;2023-11-22T09:18:27;6.07;;;3.10;;
75793;SDS011;64418;47.536;19.074;2023-11-22T09:20:53;7.87;;;3.53;;
75793;SDS011;64418;47.536;19.074;2023-11-22T09:23:19;6.00;;;3.60;;
75793;SDS011;64418;47.536;19.074;2023-11-22T09:25:45;7.83;;;3.50;;
75793;SDS011;64418;47.536;19.074;2023-11-22T09:28:11;4.75;;;3.00;;
75793;SDS011;64418;47.536;19.074;2023-11-22T09:30:39;8.57;;;3.83;;
75793;SDS011;64418;47.536;19.074;2023-11-22T09:33:06;5.07;;;2.75;;
75793;SDS011;64418;47.536;19.074;2023-11-22T09:35:34;8.55;;;3.35;;
75793;SDS011;64418;47.536;19.074;2023-11-22T09:38:01;6.20;;;3.20;;
75793;SDS011;64418;47.536;19.074;2023-11-22T09:40:28;5.30;;;3.20;;
75793;SDS011;64418;47.536;19.074;2023-11-22T09:42:55;6.60;;;3.85;;
75793;SDS011;64418;47.536;19.074;2023-11-22T09:45:21;9.70;;;3.83;;
75793;SDS011;64418;47.536;19.074;2023-11-22T09:47:49;4.37;;;2.65;;
75793;SDS011;64418;47.536;19.074;2023-11-22T09:50:17;6.00;;;3.40;;
75793;SDS011;64418;47.536;19.074;2023-11-22T09:52:46;5.90;;;3.70;;
75793;SDS011;64418;47.536;19.074;2023-11-22T09:55:16;6.57;;;3.25;;
75793;SDS011;64418;47.536;19.074;2023-11-22T09:57:43;5.12;;;3.00;;
75793;SDS011;64418;47.536;19.074;2023-11-22T10:00:10;4.80;;;2.90;;
75793;SDS011;64418;47.536;19.074;2023-11-22T10:02:37;5.00;;;3.10;;
75793;SDS011;64418;47.536;19.074;2023-11-22T10:05:04;5.47;;;3.30;;
75793;SDS011;64418;47.536;19.074;2023-11-22T10:07:31;5.10;;;2.80;;
75793;SDS011;64418;47.536;19.074;2023-11-22T10:09:58;4.82;;;2.80;;
75793;SDS011;64418;47.536;19.074;2023-11-22T10:12:24;4.53;;;3.40;;
75793;SDS011;64418;47.536;19.074;2023-11-22T10:14:50;3.70;;;3.10;;
75793;SDS011;64418;47.536;19.074;2023-11-22T10:17:17;5.30;;;2.95;;
75793;SDS011;64418;47.536;19.074;2023-11-22T10:19:44;4.82;;;3.30;;
75793;SDS011;64418;47.536;19.074;2023-11-22T10:22:12;4.95;;;3.20;;
75793;SDS011;64418;47.536;19.074;2023-11-22T10:24:38;5.90;;;2.93;;
75793;SDS011;64418;47.536;19.074;2023-11-22T10:27:05;5.57;;;2.72;;
75793;SDS011;64418;47.536;19.074;2023-11-22T10:29:30;3.42;;;2.60;;
75793;SDS011;64418;47.536;19.074;2023-11-22T10:31:56;4.60;;;2.97;;
75793;SDS011;64418;47.536;19.074;2023-11-22T10:34:23;5.30;;;2.90;;
75793;SDS011;64418;47.536;19.074;2023-11-22T10:36:49;6.55;;;3.72;;
75793;SDS011;64418;47.536;19.074;2023-11-22T10:39:20;5.20;;;4.15;;
75793;SDS011;64418;47.536;19.074;2023-11-22T10:41:46;7.05;;;4.22;;
75793;SDS011;64418;47.536;19.074;2023-11-22T10:44:12;7.28;;;3.72;;
75793;SDS011;64418;47.536;19.074;2023-11-22T10:46:40;7.83;;;4.37;;
75793;SDS011;64418;47.536;19.074;2023-11-22T10:49:06;6.68;;;4.28;;
75793;SDS011;64418;47.536;19.074;2023-11-22T10:51:33;7.05;;;4.47;;
75793;SDS011;64418;47.536;19.074;2023-11-22T10:54:04;7.97;;;4.30;;
75793;SDS011;64418;47.536;19.074;2023-11-22T10:56:37;6.75;;;4.20;;
75793;SDS011;64418;47.536;19.074;2023-11-22T10:59:05;7.13;;;4.67;;
75793;SDS011;64418;47.536;19.074;2023-11-22T11:01:36;6.82;;;5.07;;
75793;SDS011;64418;47.536;19.074;2023-11-22T11:04:03;8.27;;;5.32;;
75793;SDS011;64418;47.536;19.074;2023-11-22T11:06:34;6.90;;;5.12;;
75793;SDS011;64418;47.536;19.074;2023-11-22T11:09:03;8.40;;;4.97;;
75793;SDS011;64418;47.536;19.074;2023-11-22T11:11:30;7.33;;;4.73;;
75793;SDS011;64418;47.536;19.074;2023-11-22T11:14:00;10.00;;;5.85;;
75793;SDS011;64418;47.536;19.074;2023-11-22T11:16:28;9.15;;;4.72;;
75793;SDS011;64418;47.536;19.074;2023-11-22T11:18:55;11.10;;;5.22;;
75793;SDS011;64418;47.536;19.074;2023-11-22T11:21:21;8.73;;;5.07;;
75793;SDS011;64418;47.536;19.074;2023-11-22T11:23:47;8.20;;;5.00;;
75793;SDS011;64418;47.536;19.074;2023-11-22T11:26:18;11.00;;;6.10;;
75793;SDS011;64418;47.536;19.074;2023-11-22T11:28:45;8.90;;;5.72;;
75793;SDS011;64418;47.536;19.074;2023-11-22T11:31:15;10.55;;;6.12;;
75793;SDS011;64418;47.536;19.074;2023-11-22T11:33:53;11.65;;;5.68;;
75793;SDS011;64418;47.536;19.074;2023-11-22T11:36:20;11.23;;;5.70;;
75793;SDS011;64418;47.536;19.074;2023-11-22T11:38:48;9.10;;;5.22;;
75793;SDS011;64418;47.536;19.074;2023-11-22T11:41:16;7.55;;;4.50;;
75793;SDS011;64418;47.536;19.074;2023-11-22T11:43:43;8.13;;;5.25;;
75793;SDS011;64418;47.536;19.074;2023-11-22T11:46:09;7.35;;;4.68;;
75793;SDS011;64418;47.536;19.074;2023-11-22T11:48:38;8.47;;;5.10;;
75793;SDS011;64418;47.536;19.074;2023-11-22T11:51:08;7.72;;;5.00;;
75793;SDS011;64418;47.536;19.074;2023-11-22T11:53:34;10.55;;;4.95;;
75793;SDS011;64418;47.536;19.074;2023-11-22T11:56:01;8.07;;;4.97;;
75793;SDS011;64418;47.536;19.074;2023-11-22T11:58:27;8.57;;;4.90;;
75793;SDS011;64418;47.536;19.074;2023-11-22T12:00:54;8.50;;;4.57;;
75793;SDS011;64418;47.536;19.074;2023-11-22T12:03:20;9.13;;;5.70;;
75793;SDS011;64418;47.536;19.074;2023-11-22T12:05:49;10.50;;;6.40;;
75793;SDS011;64418;47.536;19.074;2023-11-22T12:08:15;9.30;;;5.62;;
75793;SDS011;64418;47.536;19.074;2023-11-22T12:10:41;10.77;;;6.25;;
75793;SDS011;64418;47.536;19.074;2023-11-22T12:13:08;12.40;;;5.30;;
75793;SDS011;64418;47.536;19.074;2023-11-22T12:15:34;10.05;;;5.75;;
75793;SDS011;64418;47.536;19.074;2023-11-22T12:18:01;15.98;;;6.57;;
75793;SDS011;64418;47.536;19.074;2023-11-22T12:20:27;11.70;;;6.87;;
75793;SDS011;64418;47.536;19.074;2023-11-22T12:22:55;10.07;;;6.03;;
75793;SDS011;64418;47.536;19.074;2023-11-22T12:25:21;10.33;;;6.83;;
75793;SDS011;64418;47.536;19.074;2023-11-22T12:27:47;12.23;;;7.12;;
75793;SDS011;64418;47.536;19.074;2023-11-22T12:30:27;13.75;;;7.82;;
75793;SDS011;64418;47.536;19.074;2023-11-22T12:32:54;15.30;;;7.68;;
75793;SDS011;64418;47.536;19.074;2023-11-22T12:35:20;11.77;;;7.40;;
75793;SDS011;64418;47.536;19.074;2023-11-22T12:37:46;10.05;;;6.53;;
75793;SDS011;64418;47.536;19.074;2023-11-22T12:40:15;11.90;;;6.80;;
75793;SDS011;64418;47.536;19.074;2023-11-22T12:42:48;11.63;;;7.28;;
75793;SDS011;64418;47.536;19.074;2023-11-22T12:45:19;10.40;;;6.90;;
75793;SDS011;64418;47.536;19.074;2023-11-22T12:47:45;10.43;;;6.90;;
75793;SDS011;64418;47.536;19.074;2023-11-22T12:50:17;13.13;;;6.97;;
75793;SDS011;64418;47.536;19.074;2023-11-22T12:52:54;11.95;;;7.00;;
75793;SDS011;64418;47.536;19.074;2023-11-22T12:55:22;13.00;;;7.90;;
75793;SDS011;64418;47.536;19.074;2023-11-22T12:57:55;10.00;;;6.43;;
75793;SDS011;64418;47.536;19.074;2023-11-22T13:00:22;11.25;;;7.87;;
75793;SDS011;64418;47.536;19.074;2023-11-22T13:02:48;13.40;;;7.43;;
75793;SDS011;64418;47.536;19.074;2023-11-22T13:05:15;13.35;;;7.95;;
75793;SDS011;64418;47.536;19.074;2023-11-22T13:07:41;14.02;;;8.10;;
75793;SDS011;64418;47.536;19.074;2023-11-22T13:10:07;19.53;;;9.30;;
75793;SDS011;64418;47.536;19.074;2023-11-22T13:12:35;14.32;;;9.25;;
75793;SDS011;64418;47.536;19.074;2023-11-22T13:15:01;13.00;;;8.55;;
75793;SDS011;64418;47.536;19.074;2023-11-22T13:17:27;14.52;;;9.88;;
75793;SDS011;64418;47.536;19.074;2023-11-22T13:19:53;12.07;;;8.70;;
75793;SDS011;64418;47.536;19.074;2023-11-22T13:22:19;12.13;;;7.43;;
75793;SDS011;64418;47.536;19.074;2023-11-22T13:24:47;11.52;;;7.53;;
75793;SDS011;64418;47.536;19.074;2023-11-22T13:27:13;14.05;;;8.68;;
75793;SDS011;64418;47.536;19.074;2023-11-22T13:29:41;14.57;;;8.68;;
75793;SDS011;64418;47.536;19.074;2023-11-22T13:32:08;14.13;;;8.70;;
75793;SDS011;64418;47.536;19.074;2023-11-22T13:34:34;13.10;;;8.73;;
75793;SDS011;64418;47.536;19.074;2023-11-22T13:37:00;14.63;;;9.13;;
75793;SDS011;64418;47.536;19.074;2023-11-22T13:39:26;15.95;;;9.40;;
75793;SDS011;64418;47.536;19.074;2023-11-22T13:41:52;16.87;;;8.90;;
75793;SDS011;64418;47.536;19.074;2023-11-22T13:44:18;18.65;;;11.23;;
75793;SDS011;64418;47.536;19.074;2023-11-22T13:46:45;18.37;;;10.77;;
75793;SDS011;64418;47.536;19.074;2023-11-22T13:49:11;13.63;;;9.17;;
75793;SDS011;64418;47.536;19.074;2023-11-22T13:51:37;15.80;;;9.70;;
75793;SDS011;64418;47.536;19.074;2023-11-22T13:54:03;12.55;;;7.68;;
75793;SDS011;64418;47.536;19.074;2023-11-22T13:56:29;11.48;;;7.00;;
75793;SDS011;64418;47.536;19.074;2023-11-22T13:58:55;14.02;;;7.70;;
75793;SDS011;64418;47.536;19.074;2023-11-22T14:01:21;14.43;;;8.60;;
75793;SDS011;64418;47.536;19.074;2023-11-22T14:03:49;13.20;;;6.97;;
75793;SDS011;64418;47.536;19.074;2023-11-22T14:06:15;14.23;;;7.72;;
75793;SDS011;64418;47.536;19.074;2023-11-22T14:08:41;14.85;;;8.07;;
75793;SDS011;64418;47.536;19.074;2023-11-22T14:11:07;14.93;;;7.13;;
75793;SDS011;64418;47.536;19.074;2023-11-22T14:13:33;13.18;;;7.28;;
75793;SDS011;64418;47.536;19.074;2023-11-22T14:15:59;10.52;;;6.25;;
75793;SDS011;64418;47.536;19.074;2023-11-22T14:18:25;11.55;;;6.28;;
75793;SDS011;64418;47.536;19.074;2023-11-22T14:20:53;12.03;;;6.63;;